sensor_id;sensor_type;location;lat;lon;timestamp;P1;durP1;ratioP1;P2;durP2;ratioP2
81716;SDS011;71269;44.108;3.074;2023-11-19T00:01:26;9.90;;;5.28;;
81716;SDS011;71269;44.108;3.074;2023-11-19T00:03:51;9.93;;;4.75;;
81716;SDS011;71269;44.108;3.074;2023-11-19T00:06:18;8.20;;;4.72;;
81716;SDS011;71269;44.108;3.074;2023-11-19T00:08:44;8.90;;;4.60;;
81716;SDS011;71269;44.108;3.074;2023-11-19T00:11:09;13.18;;;5.25;;
81716;SDS011;71269;44.108;3.074;2023-11-19T00:13:36;12.63;;;4.97;;
81716;SDS011;71269;44.108;3.074;2023-11-19T00:16:01;9.18;;;4.60;;
81716;SDS011;71269;44.108;3.074;2023-11-19T00:18:29;8.93;;;4.50;;
81716;SDS011;71269;44.108;3.074;2023-11-19T00:20:54;8.70;;;4.60;;
81716;SDS011;71269;44.108;3.074;2023-11-19T00:23:20;7.95;;;4.47;;
81716;SDS011;71269;44.108;3.074;2023-11-19T00:25:45;8.95;;;5.07;;
81716;SDS011;71269;44.108;3.074;2023-11-19T00:28:13;9.15;;;4.55;;
81716;SDS011;71269;44.108;3.074;2023-11-19T00:30:38;9.52;;;4.82;;
81716;SDS011;71269;44.108;3.074;2023-11-19T00:33:05;8.07;;;4.47;;
81716;SDS011;71269;44.108;3.074;2023-11-19T00:35:31;8.40;;;4.40;;
81716;SDS011;71269;44.108;3.074;2023-11-19T00:37:57;8.95;;;4.38;;
81716;SDS011;71269;44.108;3.074;2023-11-19T00:40:23;7.63;;;4.30;;
81716;SDS011;71269;44.108;3.074;2023-11-19T00:42:49;7.93;;;4.18;;
81716;SDS011;71269;44.108;3.074;2023-11-19T00:45:16;7.80;;;3.85;;
81716;SDS011;71269;44.108;3.074;2023-11-19T00:47:42;7.43;;;4.10;;
81716;SDS011;71269;44.108;3.074;2023-11-19T00:50:08;7.15;;;4.03;;
81716;SDS011;71269;44.108;3.074;2023-11-19T00:52:37;6.88;;;3.78;;
81716;SDS011;71269;44.108;3.074;2023-11-19T00:55:03;7.30;;;4.20;;
81716;SDS011;71269;44.108;3.074;2023-11-19T00:57:30;8.27;;;4.18;;
81716;SDS011;71269;44.108;3.074;2023-11-19T00:59:57;7.47;;;4.15;;
81716;SDS011;71269;44.108;3.074;2023-11-19T01:02:23;6.05;;;3.42;;
81716;SDS011;71269;44.108;3.074;2023-11-19T01:04:49;6.63;;;3.58;;
81716;SDS011;71269;44.108;3.074;2023-11-19T01:07:15;7.05;;;3.80;;
81716;SDS011;71269;44.108;3.074;2023-11-19T01:09:41;6.82;;;3.85;;
81716;SDS011;71269;44.108;3.074;2023-11-19T01:12:07;7.00;;;3.72;;
81716;SDS011;71269;44.108;3.074;2023-11-19T01:14:34;5.97;;;3.50;;
81716;SDS011;71269;44.108;3.074;2023-11-19T01:16:59;8.00;;;3.83;;
81716;SDS011;71269;44.108;3.074;2023-11-19T01:19:26;7.72;;;3.78;;
81716;SDS011;71269;44.108;3.074;2023-11-19T01:21:53;6.28;;;3.40;;
81716;SDS011;71269;44.108;3.074;2023-11-19T01:24:21;8.07;;;3.70;;
81716;SDS011;71269;44.108;3.074;2023-11-19T01:26:46;7.03;;;3.47;;
81716;SDS011;71269;44.108;3.074;2023-11-19T01:29:13;5.95;;;3.40;;
81716;SDS011;71269;44.108;3.074;2023-11-19T01:31:42;5.88;;;3.20;;
81716;SDS011;71269;44.108;3.074;2023-11-19T01:34:08;6.57;;;3.67;;
81716;SDS011;71269;44.108;3.074;2023-11-19T01:36:34;7.70;;;3.40;;
81716;SDS011;71269;44.108;3.074;2023-11-19T01:39:01;5.90;;;3.22;;
81716;SDS011;71269;44.108;3.074;2023-11-19T01:41:29;6.32;;;3.10;;
81716;SDS011;71269;44.108;3.074;2023-11-19T01:43:54;6.53;;;3.40;;
81716;SDS011;71269;44.108;3.074;2023-11-19T01:46:19;6.20;;;3.33;;
81716;SDS011;71269;44.108;3.074;2023-11-19T01:48:45;5.85;;;3.15;;
81716;SDS011;71269;44.108;3.074;2023-11-19T01:51:12;7.25;;;3.40;;
81716;SDS011;71269;44.108;3.074;2023-11-19T01:53:38;6.05;;;3.17;;
81716;SDS011;71269;44.108;3.074;2023-11-19T01:56:04;6.40;;;3.42;;
81716;SDS011;71269;44.108;3.074;2023-11-19T01:58:34;5.35;;;2.83;;
81716;SDS011;71269;44.108;3.074;2023-11-19T02:01:00;6.53;;;3.15;;
81716;SDS011;71269;44.108;3.074;2023-11-19T02:03:28;7.30;;;3.53;;
81716;SDS011;71269;44.108;3.074;2023-11-19T02:05:56;5.15;;;2.80;;
81716;SDS011;71269;44.108;3.074;2023-11-19T02:08:22;4.60;;;2.80;;
81716;SDS011;71269;44.108;3.074;2023-11-19T02:10:48;5.78;;;2.92;;
81716;SDS011;71269;44.108;3.074;2023-11-19T02:13:13;6.43;;;3.25;;
81716;SDS011;71269;44.108;3.074;2023-11-19T02:15:40;5.57;;;2.90;;
81716;SDS011;71269;44.108;3.074;2023-11-19T02:20:47;6.20;;;2.40;;
81716;SDS011;71269;44.108;3.074;2023-11-19T02:23:16;5.60;;;3.08;;
81716;SDS011;71269;44.108;3.074;2023-11-19T02:25:42;6.15;;;2.85;;
81716;SDS011;71269;44.108;3.074;2023-11-19T02:28:08;6.03;;;2.85;;
81716;SDS011;71269;44.108;3.074;2023-11-19T02:30:37;6.90;;;3.30;;
81716;SDS011;71269;44.108;3.074;2023-11-19T02:33:02;7.00;;;3.30;;
81716;SDS011;71269;44.108;3.074;2023-11-19T02:35:30;5.38;;;2.78;;
81716;SDS011;71269;44.108;3.074;2023-11-19T02:37:56;5.43;;;2.80;;
81716;SDS011;71269;44.108;3.074;2023-11-19T02:40:22;6.82;;;3.15;;
81716;SDS011;71269;44.108;3.074;2023-11-19T02:42:49;4.95;;;2.78;;
81716;SDS011;71269;44.108;3.074;2023-11-19T02:45:16;4.53;;;2.50;;
81716;SDS011;71269;44.108;3.074;2023-11-19T02:47:42;4.75;;;2.55;;
81716;SDS011;71269;44.108;3.074;2023-11-19T02:50:11;6.43;;;2.88;;
81716;SDS011;71269;44.108;3.074;2023-11-19T02:52:43;6.68;;;2.80;;
81716;SDS011;71269;44.108;3.074;2023-11-19T02:55:10;7.60;;;2.85;;
81716;SDS011;71269;44.108;3.074;2023-11-19T02:57:38;5.82;;;2.95;;
81716;SDS011;71269;44.108;3.074;2023-11-19T03:00:17;6.10;;;2.55;;
81716;SDS011;71269;44.108;3.074;2023-11-19T03:02:48;4.95;;;2.58;;
81716;SDS011;71269;44.108;3.074;2023-11-19T03:05:23;4.95;;;2.50;;
81716;SDS011;71269;44.108;3.074;2023-11-19T03:07:49;6.55;;;2.75;;
81716;SDS011;71269;44.108;3.074;2023-11-19T03:10:14;5.38;;;2.42;;
81716;SDS011;71269;44.108;3.074;2023-11-19T03:12:40;5.13;;;2.40;;
81716;SDS011;71269;44.108;3.074;2023-11-19T03:15:06;5.68;;;2.50;;
81716;SDS011;71269;44.108;3.074;2023-11-19T03:17:32;6.05;;;2.63;;
81716;SDS011;71269;44.108;3.074;2023-11-19T03:19:58;5.97;;;2.38;;
81716;SDS011;71269;44.108;3.074;2023-11-19T03:22:23;5.45;;;2.40;;
81716;SDS011;71269;44.108;3.074;2023-11-19T03:24:50;4.72;;;2.13;;
81716;SDS011;71269;44.108;3.074;2023-11-19T03:27:16;5.72;;;2.60;;
81716;SDS011;71269;44.108;3.074;2023-11-19T03:29:42;4.90;;;2.15;;
81716;SDS011;71269;44.108;3.074;2023-11-19T03:32:07;6.57;;;2.72;;
81716;SDS011;71269;44.108;3.074;2023-11-19T03:34:32;5.45;;;2.38;;
81716;SDS011;71269;44.108;3.074;2023-11-19T03:36:58;4.70;;;2.28;;
81716;SDS011;71269;44.108;3.074;2023-11-19T03:39:23;4.28;;;2.33;;
81716;SDS011;71269;44.108;3.074;2023-11-19T03:41:50;5.43;;;2.60;;
81716;SDS011;71269;44.108;3.074;2023-11-19T03:44:15;4.75;;;2.10;;
81716;SDS011;71269;44.108;3.074;2023-11-19T03:46:41;3.80;;;2.03;;
81716;SDS011;71269;44.108;3.074;2023-11-19T03:49:07;5.85;;;2.40;;
81716;SDS011;71269;44.108;3.074;2023-11-19T03:51:32;4.75;;;2.55;;
81716;SDS011;71269;44.108;3.074;2023-11-19T03:53:59;5.25;;;2.55;;
81716;SDS011;71269;44.108;3.074;2023-11-19T03:56:25;4.68;;;2.30;;
81716;SDS011;71269;44.108;3.074;2023-11-19T03:58:50;5.90;;;2.35;;
81716;SDS011;71269;44.108;3.074;2023-11-19T04:01:17;3.95;;;2.15;;
81716;SDS011;71269;44.108;3.074;2023-11-19T04:03:42;4.00;;;2.00;;
81716;SDS011;71269;44.108;3.074;2023-11-19T04:06:07;4.57;;;2.05;;
81716;SDS011;71269;44.108;3.074;2023-11-19T04:08:33;3.92;;;1.95;;
81716;SDS011;71269;44.108;3.074;2023-11-19T04:11:00;4.72;;;1.95;;
81716;SDS011;71269;44.108;3.074;2023-11-19T04:13:26;4.60;;;2.15;;
81716;SDS011;71269;44.108;3.074;2023-11-19T04:15:51;4.70;;;2.00;;
81716;SDS011;71269;44.108;3.074;2023-11-19T04:18:17;4.05;;;1.98;;
81716;SDS011;71269;44.108;3.074;2023-11-19T04:20:42;3.83;;;1.88;;
81716;SDS011;71269;44.108;3.074;2023-11-19T04:23:08;3.97;;;2.15;;
81716;SDS011;71269;44.108;3.074;2023-11-19T04:25:34;4.43;;;2.30;;
81716;SDS011;71269;44.108;3.074;2023-11-19T04:28:00;4.47;;;2.10;;
81716;SDS011;71269;44.108;3.074;2023-11-19T04:30:27;4.88;;;1.95;;
81716;SDS011;71269;44.108;3.074;2023-11-19T04:32:52;5.97;;;2.00;;
81716;SDS011;71269;44.108;3.074;2023-11-19T04:35:18;4.68;;;2.00;;
81716;SDS011;71269;44.108;3.074;2023-11-19T04:37:44;3.53;;;1.92;;
81716;SDS011;71269;44.108;3.074;2023-11-19T04:40:09;4.50;;;1.90;;
81716;SDS011;71269;44.108;3.074;2023-11-19T04:42:37;5.25;;;1.90;;
81716;SDS011;71269;44.108;3.074;2023-11-19T04:45:05;5.43;;;2.20;;
81716;SDS011;71269;44.108;3.074;2023-11-19T04:47:32;3.55;;;1.73;;
81716;SDS011;71269;44.108;3.074;2023-11-19T04:49:58;4.38;;;2.00;;
81716;SDS011;71269;44.108;3.074;2023-11-19T04:52:23;3.95;;;1.90;;
81716;SDS011;71269;44.108;3.074;2023-11-19T04:54:48;3.80;;;1.90;;
81716;SDS011;71269;44.108;3.074;2023-11-19T04:57:14;4.15;;;2.03;;
81716;SDS011;71269;44.108;3.074;2023-11-19T04:59:39;5.90;;;2.00;;
81716;SDS011;71269;44.108;3.074;2023-11-19T05:02:06;4.53;;;1.80;;
81716;SDS011;71269;44.108;3.074;2023-11-19T05:04:32;3.42;;;1.70;;
81716;SDS011;71269;44.108;3.074;2023-11-19T05:06:57;4.40;;;2.00;;
81716;SDS011;71269;44.108;3.074;2023-11-19T05:09:23;4.22;;;1.77;;
81716;SDS011;71269;44.108;3.074;2023-11-19T05:11:48;4.45;;;1.70;;
81716;SDS011;71269;44.108;3.074;2023-11-19T05:14:13;3.15;;;1.60;;
81716;SDS011;71269;44.108;3.074;2023-11-19T05:16:40;4.70;;;1.75;;
81716;SDS011;71269;44.108;3.074;2023-11-19T05:19:06;4.03;;;2.10;;
81716;SDS011;71269;44.108;3.074;2023-11-19T05:21:32;3.20;;;1.60;;
81716;SDS011;71269;44.108;3.074;2023-11-19T05:23:57;3.70;;;1.52;;
81716;SDS011;71269;44.108;3.074;2023-11-19T05:26:23;3.95;;;1.75;;
81716;SDS011;71269;44.108;3.074;2023-11-19T05:28:49;3.45;;;1.60;;
81716;SDS011;71269;44.108;3.074;2023-11-19T05:31:15;4.25;;;1.92;;
81716;SDS011;71269;44.108;3.074;2023-11-19T05:33:41;2.85;;;1.65;;
81716;SDS011;71269;44.108;3.074;2023-11-19T05:36:06;2.85;;;1.60;;
81716;SDS011;71269;44.108;3.074;2023-11-19T05:38:33;3.67;;;1.65;;
81716;SDS011;71269;44.108;3.074;2023-11-19T05:41:02;2.92;;;1.30;;
81716;SDS011;71269;44.108;3.074;2023-11-19T05:43:27;3.22;;;1.65;;
81716;SDS011;71269;44.108;3.074;2023-11-19T05:45:53;3.95;;;1.60;;
81716;SDS011;71269;44.108;3.074;2023-11-19T05:48:18;3.47;;;1.58;;
81716;SDS011;71269;44.108;3.074;2023-11-19T05:50:43;4.53;;;1.75;;
81716;SDS011;71269;44.108;3.074;2023-11-19T05:53:09;3.35;;;1.60;;
81716;SDS011;71269;44.108;3.074;2023-11-19T05:55:38;3.55;;;1.70;;
81716;SDS011;71269;44.108;3.074;2023-11-19T05:58:11;3.80;;;1.85;;
81716;SDS011;71269;44.108;3.074;2023-11-19T06:00:40;3.63;;;1.65;;
81716;SDS011;71269;44.108;3.074;2023-11-19T06:03:05;4.93;;;1.70;;
81716;SDS011;71269;44.108;3.074;2023-11-19T06:05:32;3.53;;;1.80;;
81716;SDS011;71269;44.108;3.074;2023-11-19T06:07:58;3.67;;;1.75;;
81716;SDS011;71269;44.108;3.074;2023-11-19T06:10:24;3.53;;;1.60;;
81716;SDS011;71269;44.108;3.074;2023-11-19T06:12:57;3.95;;;1.60;;
81716;SDS011;71269;44.108;3.074;2023-11-19T06:15:25;2.97;;;1.40;;
81716;SDS011;71269;44.108;3.074;2023-11-19T06:17:52;4.00;;;1.73;;
81716;SDS011;71269;44.108;3.074;2023-11-19T06:20:18;2.92;;;1.50;;
81716;SDS011;71269;44.108;3.074;2023-11-19T06:22:45;5.15;;;1.77;;
81716;SDS011;71269;44.108;3.074;2023-11-19T06:25:10;5.60;;;2.10;;
81716;SDS011;71269;44.108;3.074;2023-11-19T06:27:36;4.97;;;2.00;;
81716;SDS011;71269;44.108;3.074;2023-11-19T06:30:02;8.95;;;2.35;;
81716;SDS011;71269;44.108;3.074;2023-11-19T06:32:27;5.88;;;2.40;;
81716;SDS011;71269;44.108;3.074;2023-11-19T06:34:53;4.28;;;1.90;;
81716;SDS011;71269;44.108;3.074;2023-11-19T06:37:19;4.90;;;2.03;;
81716;SDS011;71269;44.108;3.074;2023-11-19T06:39:44;5.85;;;2.20;;
81716;SDS011;71269;44.108;3.074;2023-11-19T06:42:11;5.78;;;2.58;;
81716;SDS011;71269;44.108;3.074;2023-11-19T06:44:36;5.75;;;2.90;;
81716;SDS011;71269;44.108;3.074;2023-11-19T06:47:03;6.88;;;3.10;;
81716;SDS011;71269;44.108;3.074;2023-11-19T06:49:28;7.43;;;3.28;;
81716;SDS011;71269;44.108;3.074;2023-11-19T06:51:53;7.68;;;3.97;;
81716;SDS011;71269;44.108;3.074;2023-11-19T06:54:19;6.75;;;3.30;;
81716;SDS011;71269;44.108;3.074;2023-11-19T06:56:44;7.43;;;3.78;;
81716;SDS011;71269;44.108;3.074;2023-11-19T06:59:10;6.82;;;3.78;;
81716;SDS011;71269;44.108;3.074;2023-11-19T07:01:35;7.53;;;3.95;;
81716;SDS011;71269;44.108;3.074;2023-11-19T07:04:01;7.60;;;4.20;;
81716;SDS011;71269;44.108;3.074;2023-11-19T07:06:33;9.80;;;4.28;;
81716;SDS011;71269;44.108;3.074;2023-11-19T07:08:59;6.55;;;3.80;;
81716;SDS011;71269;44.108;3.074;2023-11-19T07:11:27;8.43;;;4.63;;
81716;SDS011;71269;44.108;3.074;2023-11-19T07:13:54;6.55;;;3.60;;
81716;SDS011;71269;44.108;3.074;2023-11-19T07:16:26;7.28;;;3.75;;
81716;SDS011;71269;44.108;3.074;2023-11-19T07:18:51;7.40;;;3.83;;
81716;SDS011;71269;44.108;3.074;2023-11-19T07:21:17;7.90;;;3.50;;
81716;SDS011;71269;44.108;3.074;2023-11-19T07:23:45;6.82;;;3.70;;
81716;SDS011;71269;44.108;3.074;2023-11-19T07:26:12;6.57;;;3.70;;
81716;SDS011;71269;44.108;3.074;2023-11-19T07:28:37;5.90;;;3.10;;
81716;SDS011;71269;44.108;3.074;2023-11-19T07:31:06;9.05;;;3.67;;
81716;SDS011;71269;44.108;3.074;2023-11-19T07:33:34;6.88;;;3.30;;
81716;SDS011;71269;44.108;3.074;2023-11-19T07:35:59;6.45;;;3.20;;
81716;SDS011;71269;44.108;3.074;2023-11-19T07:38:25;6.63;;;3.22;;
81716;SDS011;71269;44.108;3.074;2023-11-19T07:40:50;7.15;;;3.40;;
81716;SDS011;71269;44.108;3.074;2023-11-19T07:43:16;6.80;;;3.33;;
81716;SDS011;71269;44.108;3.074;2023-11-19T07:45:41;8.05;;;3.70;;
81716;SDS011;71269;44.108;3.074;2023-11-19T07:48:09;7.32;;;3.60;;
81716;SDS011;71269;44.108;3.074;2023-11-19T07:50:36;7.25;;;3.55;;
81716;SDS011;71269;44.108;3.074;2023-11-19T07:53:01;7.68;;;3.20;;
81716;SDS011;71269;44.108;3.074;2023-11-19T07:55:29;6.00;;;3.08;;
81716;SDS011;71269;44.108;3.074;2023-11-19T07:57:54;6.72;;;3.35;;
81716;SDS011;71269;44.108;3.074;2023-11-19T08:00:20;5.88;;;3.33;;
81716;SDS011;71269;44.108;3.074;2023-11-19T08:02:45;6.15;;;3.50;;
81716;SDS011;71269;44.108;3.074;2023-11-19T08:05:11;7.20;;;3.50;;
81716;SDS011;71269;44.108;3.074;2023-11-19T08:07:37;5.97;;;3.25;;
81716;SDS011;71269;44.108;3.074;2023-11-19T08:10:02;7.90;;;3.40;;
81716;SDS011;71269;44.108;3.074;2023-11-19T08:12:30;6.95;;;3.33;;
81716;SDS011;71269;44.108;3.074;2023-11-19T08:14:56;6.00;;;3.17;;
81716;SDS011;71269;44.108;3.074;2023-11-19T08:17:23;7.55;;;3.58;;
81716;SDS011;71269;44.108;3.074;2023-11-19T08:19:49;5.57;;;3.05;;
81716;SDS011;71269;44.108;3.074;2023-11-19T08:22:15;5.05;;;2.90;;
81716;SDS011;71269;44.108;3.074;2023-11-19T08:24:41;6.20;;;3.20;;
81716;SDS011;71269;44.108;3.074;2023-11-19T08:27:07;6.32;;;3.17;;
81716;SDS011;71269;44.108;3.074;2023-11-19T08:29:33;5.53;;;2.97;;
81716;SDS011;71269;44.108;3.074;2023-11-19T08:32:00;6.25;;;3.38;;
81716;SDS011;71269;44.108;3.074;2023-11-19T08:34:28;5.00;;;2.80;;
81716;SDS011;71269;44.108;3.074;2023-11-19T08:36:53;7.18;;;3.30;;
81716;SDS011;71269;44.108;3.074;2023-11-19T08:39:19;6.10;;;3.22;;
81716;SDS011;71269;44.108;3.074;2023-11-19T08:41:46;5.82;;;3.00;;
81716;SDS011;71269;44.108;3.074;2023-11-19T08:44:13;6.20;;;2.83;;
81716;SDS011;71269;44.108;3.074;2023-11-19T08:46:39;4.75;;;2.55;;
81716;SDS011;71269;44.108;3.074;2023-11-19T08:49:12;8.05;;;3.03;;
81716;SDS011;71269;44.108;3.074;2023-11-19T08:51:37;5.57;;;2.78;;
81716;SDS011;71269;44.108;3.074;2023-11-19T08:54:03;4.93;;;2.60;;
81716;SDS011;71269;44.108;3.074;2023-11-19T08:56:28;5.63;;;2.60;;
81716;SDS011;71269;44.108;3.074;2023-11-19T08:59:00;5.65;;;2.50;;
81716;SDS011;71269;44.108;3.074;2023-11-19T09:01:36;5.15;;;2.60;;
81716;SDS011;71269;44.108;3.074;2023-11-19T09:04:02;6.30;;;2.90;;
81716;SDS011;71269;44.108;3.074;2023-11-19T09:06:27;5.90;;;2.90;;
81716;SDS011;71269;44.108;3.074;2023-11-19T09:08:53;5.13;;;2.50;;
81716;SDS011;71269;44.108;3.074;2023-11-19T09:11:25;5.72;;;2.90;;
81716;SDS011;71269;44.108;3.074;2023-11-19T09:13:51;5.40;;;3.10;;
81716;SDS011;71269;44.108;3.074;2023-11-19T09:16:16;4.53;;;2.55;;
81716;SDS011;71269;44.108;3.074;2023-11-19T09:18:42;5.43;;;2.90;;
81716;SDS011;71269;44.108;3.074;2023-11-19T09:21:07;5.97;;;3.05;;
81716;SDS011;71269;44.108;3.074;2023-11-19T09:23:33;5.22;;;2.67;;
81716;SDS011;71269;44.108;3.074;2023-11-19T09:26:04;6.97;;;2.63;;
81716;SDS011;71269;44.108;3.074;2023-11-19T09:28:30;5.60;;;2.70;;
81716;SDS011;71269;44.108;3.074;2023-11-19T09:30:56;4.68;;;2.30;;
81716;SDS011;71269;44.108;3.074;2023-11-19T09:33:21;5.65;;;2.70;;
81716;SDS011;71269;44.108;3.074;2023-11-19T09:35:47;5.28;;;2.63;;
81716;SDS011;71269;44.108;3.074;2023-11-19T09:38:14;4.72;;;2.55;;
81716;SDS011;71269;44.108;3.074;2023-11-19T09:40:40;5.72;;;2.70;;
81716;SDS011;71269;44.108;3.074;2023-11-19T09:43:05;5.53;;;2.75;;
81716;SDS011;71269;44.108;3.074;2023-11-19T09:45:32;6.53;;;2.80;;
81716;SDS011;71269;44.108;3.074;2023-11-19T09:48:13;5.30;;;2.55;;
81716;SDS011;71269;44.108;3.074;2023-11-19T09:50:42;6.55;;;2.55;;
81716;SDS011;71269;44.108;3.074;2023-11-19T09:53:07;4.90;;;2.63;;
81716;SDS011;71269;44.108;3.074;2023-11-19T09:55:33;6.68;;;2.38;;
81716;SDS011;71269;44.108;3.074;2023-11-19T09:58:01;5.57;;;2.15;;
81716;SDS011;71269;44.108;3.074;2023-11-19T10:00:42;5.90;;;2.40;;
81716;SDS011;71269;44.108;3.074;2023-11-19T10:03:12;7.85;;;2.63;;
81716;SDS011;71269;44.108;3.074;2023-11-19T10:05:38;4.50;;;2.40;;
81716;SDS011;71269;44.108;3.074;2023-11-19T10:08:04;6.22;;;2.70;;
81716;SDS011;71269;44.108;3.074;2023-11-19T10:10:30;5.40;;;2.50;;
81716;SDS011;71269;44.108;3.074;2023-11-19T10:12:55;4.65;;;2.40;;
81716;SDS011;71269;44.108;3.074;2023-11-19T10:15:24;4.75;;;2.33;;
81716;SDS011;71269;44.108;3.074;2023-11-19T10:17:57;5.80;;;2.42;;
81716;SDS011;71269;44.108;3.074;2023-11-19T10:20:23;5.55;;;2.60;;
81716;SDS011;71269;44.108;3.074;2023-11-19T10:22:51;7.25;;;2.55;;
81716;SDS011;71269;44.108;3.074;2023-11-19T10:25:25;6.25;;;2.40;;
81716;SDS011;71269;44.108;3.074;2023-11-19T10:27:57;5.43;;;2.42;;
81716;SDS011;71269;44.108;3.074;2023-11-19T10:30:26;5.25;;;2.35;;
81716;SDS011;71269;44.108;3.074;2023-11-19T10:33:09;5.85;;;2.50;;
81716;SDS011;71269;44.108;3.074;2023-11-19T10:38:24;5.13;;;2.50;;
81716;SDS011;71269;44.108;3.074;2023-11-19T10:40:51;9.85;;;2.85;;
81716;SDS011;71269;44.108;3.074;2023-11-19T10:43:17;6.55;;;2.38;;
81716;SDS011;71269;44.108;3.074;2023-11-19T10:45:43;11.00;;;2.80;;
81716;SDS011;71269;44.108;3.074;2023-11-19T10:48:08;6.15;;;2.47;;
81716;SDS011;71269;44.108;3.074;2023-11-19T10:50:38;6.63;;;2.53;;
81716;SDS011;71269;44.108;3.074;2023-11-19T10:53:05;7.30;;;3.05;;
81716;SDS011;71269;44.108;3.074;2023-11-19T10:55:35;6.82;;;2.65;;
81716;SDS011;71269;44.108;3.074;2023-11-19T10:58:07;8.60;;;2.90;;
81716;SDS011;71269;44.108;3.074;2023-11-19T11:03:19;9.65;;;2.80;;
81716;SDS011;71269;44.108;3.074;2023-11-19T11:05:46;9.48;;;2.45;;
81716;SDS011;71269;44.108;3.074;2023-11-19T11:08:12;10.25;;;2.75;;
81716;SDS011;71269;44.108;3.074;2023-11-19T11:10:45;9.50;;;2.40;;
81716;SDS011;71269;44.108;3.074;2023-11-19T11:13:18;11.80;;;2.53;;
81716;SDS011;71269;44.108;3.074;2023-11-19T11:15:44;8.02;;;3.22;;
81716;SDS011;71269;44.108;3.074;2023-11-19T11:18:13;10.23;;;2.65;;
81716;SDS011;71269;44.108;3.074;2023-11-19T11:20:39;10.77;;;2.30;;
81716;SDS011;71269;44.108;3.074;2023-11-19T11:25:57;7.43;;;2.40;;
81716;SDS011;71269;44.108;3.074;2023-11-19T11:28:35;10.20;;;2.60;;
81716;SDS011;71269;44.108;3.074;2023-11-19T11:36:25;8.95;;;2.30;;
81716;SDS011;71269;44.108;3.074;2023-11-19T11:38:50;10.85;;;2.72;;
81716;SDS011;71269;44.108;3.074;2023-11-19T11:41:23;7.38;;;2.63;;
81716;SDS011;71269;44.108;3.074;2023-11-19T11:43:53;9.18;;;2.78;;
81716;SDS011;71269;44.108;3.074;2023-11-19T11:49:04;10.02;;;2.50;;
81716;SDS011;71269;44.108;3.074;2023-11-19T11:54:11;10.02;;;2.80;;
81716;SDS011;71269;44.108;3.074;2023-11-19T11:57:07;15.38;;;3.20;;
81716;SDS011;71269;44.108;3.074;2023-11-19T12:02:12;12.02;;;2.55;;
81716;SDS011;71269;44.108;3.074;2023-11-19T12:04:41;12.55;;;3.15;;
81716;SDS011;71269;44.108;3.074;2023-11-19T12:09:41;10.07;;;2.38;;
81716;SDS011;71269;44.108;3.074;2023-11-19T12:12:28;7.30;;;2.30;;
81716;SDS011;71269;44.108;3.074;2023-11-19T12:17:56;9.32;;;2.80;;
81716;SDS011;71269;44.108;3.074;2023-11-19T12:20:15;18.77;;;3.17;;
81716;SDS011;71269;44.108;3.074;2023-11-19T12:22:42;13.52;;;2.92;;
81716;SDS011;71269;44.108;3.074;2023-11-19T12:25:08;10.55;;;2.55;;
81716;SDS011;71269;44.108;3.074;2023-11-19T12:27:35;12.68;;;2.50;;
81716;SDS011;71269;44.108;3.074;2023-11-19T12:30:08;8.90;;;2.30;;
81716;SDS011;71269;44.108;3.074;2023-11-19T12:32:41;9.30;;;2.45;;
81716;SDS011;71269;44.108;3.074;2023-11-19T12:35:08;11.57;;;2.90;;
81716;SDS011;71269;44.108;3.074;2023-11-19T12:37:46;18.30;;;4.20;;
81716;SDS011;71269;44.108;3.074;2023-11-19T12:42:45;9.73;;;3.08;;
81716;SDS011;71269;44.108;3.074;2023-11-19T12:45:11;10.80;;;2.72;;
81716;SDS011;71269;44.108;3.074;2023-11-19T12:47:37;78.55;;;8.80;;
81716;SDS011;71269;44.108;3.074;2023-11-19T12:50:06;13.63;;;3.40;;
81716;SDS011;71269;44.108;3.074;2023-11-19T12:52:33;11.75;;;2.95;;
81716;SDS011;71269;44.108;3.074;2023-11-19T12:54:59;15.25;;;3.60;;
81716;SDS011;71269;44.108;3.074;2023-11-19T12:57:40;12.35;;;3.30;;
81716;SDS011;71269;44.108;3.074;2023-11-19T13:00:07;17.05;;;3.10;;
81716;SDS011;71269;44.108;3.074;2023-11-19T13:02:46;11.68;;;3.35;;
81716;SDS011;71269;44.108;3.074;2023-11-19T13:05:29;13.05;;;3.25;;
81716;SDS011;71269;44.108;3.074;2023-11-19T13:08:07;11.68;;;2.97;;
81716;SDS011;71269;44.108;3.074;2023-11-19T13:10:34;13.15;;;2.88;;
81716;SDS011;71269;44.108;3.074;2023-11-19T13:13:16;10.07;;;2.63;;
81716;SDS011;71269;44.108;3.074;2023-11-19T13:15:42;13.35;;;3.30;;
81716;SDS011;71269;44.108;3.074;2023-11-19T13:18:11;12.00;;;2.80;;
81716;SDS011;71269;44.108;3.074;2023-11-19T13:20:49;10.05;;;2.80;;
81716;SDS011;71269;44.108;3.074;2023-11-19T13:23:14;12.10;;;3.03;;
81716;SDS011;71269;44.108;3.074;2023-11-19T13:25:40;9.38;;;2.78;;
81716;SDS011;71269;44.108;3.074;2023-11-19T13:28:05;7.40;;;2.60;;
81716;SDS011;71269;44.108;3.074;2023-11-19T13:30:31;9.10;;;3.05;;
81716;SDS011;71269;44.108;3.074;2023-11-19T13:32:56;9.50;;;2.95;;
81716;SDS011;71269;44.108;3.074;2023-11-19T13:35:22;7.85;;;2.65;;
81716;SDS011;71269;44.108;3.074;2023-11-19T13:37:49;8.68;;;2.55;;
81716;SDS011;71269;44.108;3.074;2023-11-19T13:40:14;10.52;;;2.88;;
81716;SDS011;71269;44.108;3.074;2023-11-19T13:42:44;8.05;;;2.47;;
81716;SDS011;71269;44.108;3.074;2023-11-19T13:45:13;9.90;;;2.88;;
81716;SDS011;71269;44.108;3.074;2023-11-19T13:47:42;7.32;;;2.63;;
81716;SDS011;71269;44.108;3.074;2023-11-19T13:50:08;10.57;;;2.55;;
81716;SDS011;71269;44.108;3.074;2023-11-19T13:52:36;7.63;;;2.53;;
81716;SDS011;71269;44.108;3.074;2023-11-19T13:55:04;7.78;;;2.38;;
81716;SDS011;71269;44.108;3.074;2023-11-19T13:57:31;9.82;;;2.92;;
81716;SDS011;71269;44.108;3.074;2023-11-19T13:59:57;7.32;;;2.40;;
81716;SDS011;71269;44.108;3.074;2023-11-19T14:02:22;8.63;;;2.70;;
81716;SDS011;71269;44.108;3.074;2023-11-19T14:04:48;5.57;;;2.05;;
81716;SDS011;71269;44.108;3.074;2023-11-19T14:07:14;8.00;;;2.47;;
81716;SDS011;71269;44.108;3.074;2023-11-19T14:09:41;8.73;;;2.45;;
81716;SDS011;71269;44.108;3.074;2023-11-19T14:12:07;8.38;;;2.60;;
81716;SDS011;71269;44.108;3.074;2023-11-19T14:14:34;6.20;;;2.25;;
81716;SDS011;71269;44.108;3.074;2023-11-19T14:17:01;7.07;;;2.30;;
81716;SDS011;71269;44.108;3.074;2023-11-19T14:19:29;7.22;;;2.80;;
81716;SDS011;71269;44.108;3.074;2023-11-19T14:21:55;10.27;;;2.78;;
81716;SDS011;71269;44.108;3.074;2023-11-19T14:24:24;5.65;;;2.17;;
81716;SDS011;71269;44.108;3.074;2023-11-19T14:26:51;8.02;;;2.50;;
81716;SDS011;71269;44.108;3.074;2023-11-19T14:29:17;7.95;;;2.38;;
81716;SDS011;71269;44.108;3.074;2023-11-19T14:31:42;5.60;;;1.88;;
81716;SDS011;71269;44.108;3.074;2023-11-19T14:34:08;8.70;;;2.60;;
81716;SDS011;71269;44.108;3.074;2023-11-19T14:36:33;6.30;;;2.20;;
81716;SDS011;71269;44.108;3.074;2023-11-19T14:39:00;6.00;;;2.10;;
81716;SDS011;71269;44.108;3.074;2023-11-19T14:41:25;7.00;;;2.30;;
81716;SDS011;71269;44.108;3.074;2023-11-19T14:43:50;9.68;;;2.55;;
81716;SDS011;71269;44.108;3.074;2023-11-19T14:46:16;9.65;;;2.35;;
81716;SDS011;71269;44.108;3.074;2023-11-19T14:48:41;8.15;;;2.28;;
81716;SDS011;71269;44.108;3.074;2023-11-19T14:51:07;6.00;;;2.10;;
81716;SDS011;71269;44.108;3.074;2023-11-19T14:53:33;7.90;;;2.20;;
81716;SDS011;71269;44.108;3.074;2023-11-19T14:55:59;9.63;;;2.30;;
81716;SDS011;71269;44.108;3.074;2023-11-19T14:58:25;7.47;;;2.40;;
81716;SDS011;71269;44.108;3.074;2023-11-19T15:00:51;6.00;;;2.20;;
81716;SDS011;71269;44.108;3.074;2023-11-19T15:03:17;7.78;;;2.25;;
81716;SDS011;71269;44.108;3.074;2023-11-19T15:05:44;7.22;;;2.53;;
81716;SDS011;71269;44.108;3.074;2023-11-19T15:08:11;6.97;;;2.70;;
81716;SDS011;71269;44.108;3.074;2023-11-19T15:10:36;6.00;;;2.40;;
81716;SDS011;71269;44.108;3.074;2023-11-19T15:13:02;5.70;;;2.30;;
81716;SDS011;71269;44.108;3.074;2023-11-19T15:15:29;6.18;;;2.20;;
81716;SDS011;71269;44.108;3.074;2023-11-19T15:17:55;9.68;;;3.15;;